Terminal Aerodrome Forecast
Issued by NWS Detroit/Pontiac, MI

Home | Current Version | Previous Version | Text Only | Print | Product List | Glossary On
Versions: 1 2 3 4 5 6 7 8 9 10 11 12 13 14 15 16 17 18 19 20 21 22 23 24 25 26 27 28 29 30 31 32 33
269
FTUS43 KDTX 202320
TAFDTW
TAF
KDTW 202320Z 2100/2206 20004KT 1 1/2SM BR OVC003
      TEMPO 2100/2103 1/2SM FG OVC002
     FM210300 VRB03KT 1/4SM FG VV002
     FM211500 17008KT 1SM BR OVC002
     FM211700 18008KT 3SM BR OVC006
     FM212000 18008KT 6SM BR SCT010 OVC020=

USA.gov is the U.S. government's official web portal to all federal, state and local government web resources and services.